createdAt,value
2022-09-17T00:04:12.513Z,2.30
2022-09-17T00:09:15.738Z,2.00
2022-09-17T00:14:18.438Z,2.10
2022-09-17T00:19:23.095Z,2.30
2022-09-17T00:24:25.901Z,1.90
2022-09-17T00:29:28.664Z,1.90
2022-09-17T00:34:31.368Z,2.20
2022-09-17T00:39:34.006Z,1.90
2022-09-17T00:44:54.852Z,1.60
2022-09-17T00:50:23.163Z,2.20
2022-09-17T00:55:32.689Z,2.20
2022-09-17T01:00:35.608Z,1.80
2022-09-17T01:05:57.070Z,1.70
2022-09-17T01:11:13.602Z,2.00
2022-09-17T01:17:00.959Z,2.10
2022-09-17T01:22:22.736Z,1.90
2022-09-17T01:27:45.890Z,2.40
2022-09-17T01:33:39.146Z,2.00
2022-09-17T01:38:53.776Z,1.70
2022-09-17T01:44:02.513Z,1.70
2022-09-17T01:49:05.921Z,1.60
2022-09-17T01:54:42.449Z,2.60
2022-09-17T01:59:53.166Z,1.90
2022-09-17T02:05:05.249Z,1.90
2022-09-17T02:10:18.409Z,2.10
2022-09-17T02:15:25.176Z,2.30
2022-09-17T02:20:35.932Z,2.10
2022-09-17T02:25:52.768Z,2.10
2022-09-17T02:30:55.546Z,2.40
2022-09-17T02:35:58.344Z,2.40
2022-09-17T02:41:20.969Z,2.20
2022-09-17T02:47:10.499Z,2.20
2022-09-17T02:53:11.376Z,2.00
2022-09-17T02:58:16.767Z,1.80
2022-09-17T03:03:39.219Z,2.00
2022-09-17T03:08:42.162Z,2.10
2022-09-17T03:13:45.028Z,1.90
2022-09-17T03:18:47.685Z,2.20
2022-09-17T03:23:50.330Z,2.10
2022-09-17T03:28:53.103Z,2.50
2022-09-17T03:33:55.723Z,2.00
2022-09-17T03:38:58.706Z,2.60
2022-09-17T03:44:01.761Z,3.10
2022-09-17T03:49:04.467Z,3.30
2022-09-17T03:54:07.306Z,2.40
2022-09-17T03:59:10.633Z,2.20
2022-09-17T04:04:13.274Z,2.40
2022-09-17T04:09:16.207Z,2.00
2022-09-17T04:14:18.871Z,2.50
2022-09-17T04:19:21.537Z,2.40
2022-09-17T04:24:24.236Z,2.20
2022-09-17T04:29:26.913Z,2.10
2022-09-17T04:34:29.610Z,2.20
2022-09-17T04:39:32.394Z,2.20
2022-09-17T04:44:35.054Z,2.30
2022-09-17T04:49:37.696Z,2.50
2022-09-17T04:54:40.387Z,2.40
2022-09-17T04:59:43.085Z,2.40
2022-09-17T05:04:45.785Z,2.60
2022-09-17T05:09:48.471Z,2.50
2022-09-17T05:14:51.097Z,2.90
2022-09-17T05:19:53.752Z,3.40
2022-09-17T05:24:56.552Z,2.60
2022-09-17T05:30:01.422Z,2.60
2022-09-17T05:35:06.020Z,2.80
2022-09-17T05:40:09.747Z,2.60
2022-09-17T05:45:12.512Z,2.60
2022-09-17T05:50:15.380Z,2.90
2022-09-17T05:55:19.259Z,2.60
2022-09-17T06:00:21.997Z,3.10
2022-09-17T06:05:24.989Z,3.20
2022-09-17T06:10:27.695Z,2.10
2022-09-17T06:15:30.919Z,2.50
2022-09-17T06:20:33.581Z,2.40
2022-09-17T06:25:36.331Z,2.30
2022-09-17T06:30:39.984Z,1.70
2022-09-17T06:35:42.987Z,1.70
2022-09-17T06:40:52.250Z,2.20
2022-09-17T06:45:57.607Z,1.90
2022-09-17T06:51:06.320Z,1.20
2022-09-17T06:56:09.720Z,1.60
2022-09-17T07:01:12.901Z,1.90
2022-09-17T07:06:15.683Z,1.20
2022-09-17T07:11:18.403Z,1.10
2022-09-17T07:16:21.161Z,1.50
2022-09-17T07:21:24.042Z,1.90
2022-09-17T07:26:26.845Z,1.70
2022-09-17T07:31:29.553Z,1.40
2022-09-17T07:36:32.323Z,1.60
2022-09-17T07:41:35.317Z,1.30
2022-09-17T07:46:38.292Z,2.40
2022-09-17T07:51:41.104Z,1.60
2022-09-17T07:56:45.111Z,1.30
2022-09-17T08:01:48.432Z,1.40
2022-09-17T08:06:51.282Z,1.40
2022-09-17T08:11:56.348Z,1.50
2022-09-17T08:16:59.692Z,1.40
2022-09-17T08:22:02.390Z,1.50
2022-09-17T08:27:05.553Z,1.60
2022-09-17T08:32:08.222Z,1.40
2022-09-17T08:37:11.118Z,1.50
2022-09-17T08:42:36.257Z,1.40
2022-09-17T08:47:39.645Z,1.50
2022-09-17T08:53:04.763Z,1.30
2022-09-17T08:58:52.783Z,1.40
2022-09-17T09:04:04.920Z,1.50
2022-09-17T09:09:13.967Z,1.50
2022-09-17T09:14:24.188Z,1.30
2022-09-17T09:19:32.502Z,1.00
2022-09-17T09:29:56.821Z,1.00
2022-09-17T09:35:01.220Z,1.70
2022-09-17T09:41:06.585Z,0.80
2022-09-17T09:46:40.581Z,0.80
2022-09-17T09:52:11.685Z,1.00
2022-09-17T09:57:17.582Z,1.20
2022-09-17T10:02:20.920Z,1.20
2022-09-17T10:07:23.852Z,0.90
2022-09-17T10:12:26.464Z,0.90
2022-09-17T10:17:29.631Z,0.70
2022-09-17T10:22:34.948Z,0.80
2022-09-17T10:27:37.775Z,0.80
2022-09-17T10:32:40.422Z,0.80
2022-09-17T10:37:47.882Z,1.10
2022-09-17T10:43:14.338Z,1.00
2022-09-17T10:48:20.432Z,0.60
2022-09-17T10:53:24.503Z,0.90
2022-09-17T10:58:42.632Z,1.10
2022-09-17T11:04:26.280Z,1.00
2022-09-17T11:09:52.704Z,0.90
2022-09-17T11:14:58.073Z,1.00
2022-09-17T11:20:22.556Z,1.10
2022-09-17T11:25:45.178Z,1.10
2022-09-17T11:30:56.738Z,1.10
2022-09-17T11:36:05.372Z,1.10
2022-09-17T11:41:18.751Z,1.10
2022-09-17T11:46:29.534Z,1.30
2022-09-17T11:51:41.544Z,1.00
2022-09-17T11:56:46.285Z,1.20
2022-09-17T12:02:00.761Z,1.20
2022-09-17T12:07:27.770Z,1.10
2022-09-17T12:12:50.024Z,0.80
2022-09-17T12:18:32.694Z,0.70
2022-09-17T12:23:51.327Z,0.90
2022-09-17T12:29:23.658Z,0.90
2022-09-17T12:34:57.635Z,0.80
2022-09-17T12:40:06.673Z,0.80
2022-09-17T12:45:35.333Z,0.70
2022-09-17T12:51:09.587Z,0.70
2022-09-17T12:56:53.671Z,0.70
2022-09-17T13:02:03.602Z,0.80
2022-09-17T13:07:51.467Z,1.00
2022-09-17T13:13:11.466Z,1.20
2022-09-17T13:19:12.326Z,1.00
2022-09-17T13:24:22.700Z,1.00
2022-09-17T13:29:54.798Z,1.00
2022-09-17T13:34:57.486Z,1.00
2022-09-17T13:40:00.521Z,1.10
2022-09-17T13:45:08.787Z,0.90
2022-09-17T13:50:28.160Z,1.00
2022-09-17T13:55:58.599Z,1.20
2022-09-17T14:01:06.116Z,1.00
2022-09-17T14:06:09.175Z,1.10
2022-09-17T14:11:24.110Z,1.20
2022-09-17T14:16:35.407Z,1.20
2022-09-17T14:21:38.365Z,1.40
2022-09-17T14:27:10.057Z,1.50
2022-09-17T14:33:00.616Z,1.70
2022-09-17T14:38:29.273Z,1.80
2022-09-17T14:43:41.090Z,1.80
2022-09-17T14:48:43.724Z,1.70
2022-09-17T14:54:14.703Z,2.20
2022-09-17T14:59:52.731Z,2.60
2022-09-17T15:04:55.856Z,1.80
2022-09-17T15:10:20.068Z,1.80
2022-09-17T15:15:24.810Z,2.00
2022-09-17T15:20:32.159Z,1.70
2022-09-17T15:25:35.352Z,2.00
2022-09-17T15:30:38.091Z,2.00
2022-09-17T15:35:41.101Z,2.10
2022-09-17T15:40:43.865Z,1.80
2022-09-17T15:45:46.823Z,1.90
2022-09-17T15:50:57.722Z,1.90
2022-09-17T15:56:07.323Z,1.70
2022-09-17T16:01:16.381Z,1.60
2022-09-17T16:06:23.175Z,2.30
2022-09-17T16:11:30.763Z,1.90
2022-09-17T16:16:35.764Z,1.80
2022-09-17T16:21:38.542Z,2.00
2022-09-17T16:26:41.198Z,1.80
2022-09-17T16:31:44.980Z,2.20
2022-09-17T16:36:47.886Z,2.60
2022-09-17T16:41:50.562Z,3.40
2022-09-17T16:46:53.343Z,3.60
2022-09-17T16:51:56.132Z,3.20
2022-09-17T16:56:58.902Z,3.50
2022-09-17T17:02:02.467Z,3.70
2022-09-17T17:07:05.148Z,3.70
2022-09-17T17:12:08.378Z,4.20
2022-09-17T17:17:11.049Z,4.00
2022-09-17T17:22:14.514Z,4.40
2022-09-17T17:27:17.301Z,3.80
2022-09-17T17:32:20.014Z,3.70
2022-09-17T17:37:23.382Z,3.50
2022-09-17T17:42:26.064Z,4.00
2022-09-17T17:47:28.720Z,5.00
2022-09-17T17:52:31.923Z,4.10
2022-09-17T17:57:34.732Z,4.80
2022-09-17T18:02:37.503Z,5.30
2022-09-17T18:07:40.536Z,4.40
2022-09-17T18:12:50.576Z,4.80
2022-09-17T18:17:54.470Z,6.00
2022-09-17T18:22:57.150Z,11.70
2022-09-17T18:27:59.843Z,13.50
2022-09-17T18:33:02.468Z,12.10
2022-09-17T18:38:08.071Z,10.60
2022-09-17T18:43:10.835Z,11.60
2022-09-17T18:48:13.579Z,11.00
2022-09-17T18:53:16.334Z,9.30
2022-09-17T18:58:19.064Z,7.80
2022-09-17T19:03:21.717Z,8.00
2022-09-17T19:08:24.455Z,9.40
2022-09-17T19:13:32.712Z,10.40
2022-09-17T19:18:37.045Z,11.20
2022-09-17T19:23:44.534Z,11.80
2022-09-17T19:28:47.308Z,12.60
2022-09-17T19:33:51.469Z,11.20
2022-09-17T19:38:55.306Z,10.60
2022-09-17T19:43:58.153Z,10.80
2022-09-17T19:49:01.517Z,11.10
2022-09-17T19:54:05.265Z,12.90
2022-09-17T19:59:08.153Z,12.10
2022-09-17T20:04:10.981Z,13.90
2022-09-17T20:09:13.703Z,12.80
2022-09-17T20:14:18.016Z,13.30
2022-09-17T20:19:20.912Z,13.20
2022-09-17T20:24:23.912Z,13.60
2022-09-17T20:29:26.599Z,12.50
2022-09-17T20:34:29.250Z,13.80
2022-09-17T20:39:31.972Z,12.00
2022-09-17T20:44:34.753Z,11.90
2022-09-17T20:49:37.414Z,11.90
2022-09-17T20:54:40.092Z,11.70
2022-09-17T20:59:57.676Z,13.60
2022-09-17T21:05:00.477Z,13.60
2022-09-17T21:10:03.824Z,13.70
2022-09-17T21:15:07.020Z,14.50
2022-09-17T21:20:09.995Z,14.10
2022-09-17T21:25:13.208Z,13.70
2022-09-17T21:30:16.092Z,12.60
2022-09-17T21:35:18.748Z,12.10
2022-09-17T21:40:21.445Z,12.10
2022-09-17T21:45:24.341Z,12.20
2022-09-17T21:50:27.048Z,12.60
2022-09-17T21:55:29.753Z,12.20
2022-09-17T22:00:33.555Z,13.50
2022-09-17T22:05:36.989Z,11.40
2022-09-17T22:10:40.077Z,12.60
2022-09-17T22:15:42.787Z,12.60
2022-09-17T22:20:45.472Z,11.40
2022-09-17T22:25:48.117Z,11.90
2022-09-17T22:30:50.815Z,10.30
2022-09-17T22:35:53.533Z,8.20
2022-09-17T22:40:56.224Z,8.10
2022-09-17T22:45:59.205Z,7.30
2022-09-17T22:51:02.144Z,7.10
2022-09-17T22:56:06.613Z,7.80
2022-09-17T23:01:17.412Z,6.70
2022-09-17T23:06:26.004Z,5.80
2022-09-17T23:16:39.713Z,5.40
2022-09-17T23:21:42.712Z,5.20
2022-09-17T23:26:45.465Z,5.00
2022-09-17T23:31:48.440Z,4.90
2022-09-17T23:36:51.159Z,4.80
2022-09-17T23:41:54.057Z,4.50
2022-09-17T23:46:56.769Z,4.60
2022-09-17T23:51:59.478Z,4.40
2022-09-17T23:57:02.151Z,4.20
